createdAt,value
2018-02-09T00:00:06.576Z,89.00
2018-02-09T00:02:33.104Z,89.60
2018-02-09T00:04:59.594Z,89.50
2018-02-09T00:07:33.085Z,89.50
2018-02-09T00:10:00.376Z,89.70
2018-02-09T00:12:40.136Z,89.70
2018-02-09T00:15:06.672Z,89.40
2018-02-09T00:17:33.169Z,89.10
2018-02-09T00:20:03.642Z,89.10
2018-02-09T00:22:42.461Z,89.20
2018-02-09T00:25:08.953Z,89.20
2018-02-09T00:27:35.433Z,89.30
2018-02-09T00:30:03.030Z,89.30
2018-02-09T00:32:29.548Z,89.30
2018-02-09T00:34:56.155Z,89.40
2018-02-09T00:37:23.425Z,89.50
2018-02-09T00:39:49.888Z,89.50
2018-02-09T00:42:16.387Z,89.50
2018-02-09T00:44:44.904Z,89.40
2018-02-09T00:47:11.389Z,89.30
2018-02-09T00:49:38.714Z,89.40
2018-02-09T00:52:05.250Z,89.30
2018-02-09T00:54:31.785Z,89.40
2018-02-09T00:57:00.061Z,89.30
2018-02-09T00:59:26.588Z,89.30
2018-02-09T01:01:53.114Z,89.20
2018-02-09T01:04:19.625Z,89.30
2018-02-09T01:06:46.184Z,89.30
2018-02-09T01:09:13.473Z,89.20
2018-02-09T01:11:39.998Z,89.20
2018-02-09T01:14:07.304Z,89.10
2018-02-09T01:16:33.876Z,89.00
2018-02-09T01:19:00.360Z,89.00
2018-02-09T01:21:26.967Z,88.90
2018-02-09T01:23:53.452Z,88.70
2018-02-09T01:26:20.033Z,88.50
2018-02-09T01:28:46.625Z,88.40
2018-02-09T01:31:13.111Z,88.40
2018-02-09T01:33:41.093Z,88.50
2018-02-09T01:36:07.610Z,88.50
2018-02-09T01:38:34.109Z,88.30
2018-02-09T01:41:00.590Z,88.20
2018-02-09T01:43:27.105Z,88.00
2018-02-09T01:45:53.580Z,87.80
2018-02-09T01:48:20.872Z,87.80
2018-02-09T01:50:47.392Z,87.80
2018-02-09T01:53:13.935Z,87.80
2018-02-09T01:55:40.443Z,87.70
2018-02-09T01:58:06.941Z,87.70
2018-02-09T02:00:33.436Z,87.90
2018-02-09T02:02:59.955Z,88.00
2018-02-09T02:05:26.525Z,88.00
2018-02-09T02:07:53.037Z,87.90
2018-02-09T02:10:19.591Z,88.00
2018-02-09T02:12:46.144Z,87.70
2018-02-09T02:15:12.635Z,87.70
2018-02-09T02:17:39.211Z,87.60
2018-02-09T02:20:05.837Z,87.40
2018-02-09T02:22:32.345Z,87.50
2018-02-09T02:24:59.549Z,87.10
2018-02-09T02:27:26.059Z,87.00
2018-02-09T02:29:52.533Z,87.10
2018-02-09T02:32:19.128Z,87.10
2018-02-09T02:34:45.591Z,87.10
2018-02-09T02:37:12.010Z,87.20
2018-02-09T02:39:38.450Z,87.20
2018-02-09T02:42:04.960Z,87.10
2018-02-09T02:44:31.384Z,87.10
2018-02-09T02:46:57.874Z,87.10
2018-02-09T02:49:24.364Z,87.00
2018-02-09T02:51:50.809Z,87.50
2018-02-09T02:54:17.272Z,86.70
2018-02-09T02:56:44.486Z,86.10
2018-02-09T02:59:10.909Z,86.10
2018-02-09T03:01:37.365Z,85.60
2018-02-09T03:04:03.889Z,85.40
2018-02-09T03:06:30.337Z,85.40
2018-02-09T03:08:56.769Z,85.30
2018-02-09T03:11:23.228Z,85.40
2018-02-09T03:13:49.680Z,85.30
2018-02-09T03:16:16.160Z,85.40
2018-02-09T03:18:42.617Z,85.40
2018-02-09T03:21:09.044Z,85.40
2018-02-09T03:23:35.467Z,85.50
2018-02-09T03:26:02.648Z,85.10
2018-02-09T03:28:29.088Z,85.10
2018-02-09T03:30:55.556Z,84.90
2018-02-09T03:33:22.755Z,84.80
2018-02-09T03:35:49.198Z,85.40
2018-02-09T03:38:15.641Z,84.80
2018-02-09T03:40:42.093Z,84.70
2018-02-09T03:43:08.499Z,84.50
2018-02-09T03:45:34.940Z,84.40
2018-02-09T03:48:01.449Z,84.10
2018-02-09T03:50:27.908Z,84.50
2018-02-09T03:52:54.352Z,84.60
2018-02-09T03:55:20.811Z,84.90
2018-02-09T03:57:47.217Z,84.60
2018-02-09T04:00:13.662Z,84.40
2018-02-09T04:02:40.098Z,84.10
2018-02-09T04:05:06.521Z,84.30
2018-02-09T04:07:32.969Z,84.70
2018-02-09T04:09:59.449Z,84.90
2018-02-09T04:12:25.893Z,84.60
2018-02-09T04:14:52.313Z,84.30
2018-02-09T04:17:18.823Z,84.40
2018-02-09T04:19:45.219Z,84.60
2018-02-09T04:22:11.626Z,84.80
2018-02-09T04:24:38.054Z,84.80
2018-02-09T04:27:04.501Z,84.70
2018-02-09T04:29:30.929Z,85.00
2018-02-09T04:31:57.365Z,85.00
2018-02-09T04:34:23.828Z,85.10
2018-02-09T04:36:50.237Z,85.30
2018-02-09T04:39:17.717Z,85.30
2018-02-09T04:41:44.165Z,85.10
2018-02-09T04:44:10.572Z,84.80
2018-02-09T04:46:37.056Z,84.50
2018-02-09T04:49:03.528Z,84.40
2018-02-09T04:51:29.928Z,84.20
2018-02-09T04:53:57.835Z,83.50
2018-02-09T04:56:24.233Z,83.40
2018-02-09T04:58:50.663Z,83.50
2018-02-09T05:01:17.105Z,83.80
2018-02-09T05:03:44.272Z,84.60
2018-02-09T05:06:11.427Z,84.60
2018-02-09T05:08:38.626Z,84.50
2018-02-09T05:11:05.012Z,84.50
2018-02-09T05:13:31.440Z,84.10
2018-02-09T05:15:57.904Z,83.60
2018-02-09T05:18:24.305Z,83.20
2018-02-09T05:20:50.732Z,83.10
2018-02-09T05:23:17.905Z,83.10
2018-02-09T05:25:44.340Z,83.20
2018-02-09T05:28:11.755Z,82.90
2018-02-09T05:30:38.172Z,82.70
2018-02-09T05:33:04.600Z,82.80
2018-02-09T05:35:31.024Z,83.10
2018-02-09T05:37:57.449Z,83.40
2018-02-09T05:40:23.884Z,83.10
2018-02-09T05:42:50.296Z,83.20
2018-02-09T05:45:16.753Z,82.50
2018-02-09T05:47:43.198Z,82.50
2018-02-09T05:50:09.616Z,83.20
2018-02-09T05:52:36.119Z,83.10
2018-02-09T05:55:03.025Z,83.80
2018-02-09T05:57:29.467Z,84.00
2018-02-09T05:59:55.908Z,83.60
2018-02-09T06:02:22.326Z,83.50
2018-02-09T06:04:48.737Z,83.50
2018-02-09T06:07:15.186Z,83.40
2018-02-09T06:09:41.613Z,83.60
2018-02-09T06:12:08.017Z,83.50
2018-02-09T06:14:34.435Z,83.80
2018-02-09T06:17:00.898Z,84.00
2018-02-09T06:19:27.295Z,83.80
2018-02-09T06:21:53.736Z,83.80
2018-02-09T06:24:20.877Z,84.00
2018-02-09T06:26:47.315Z,83.80
2018-02-09T06:29:14.515Z,83.60
2018-02-09T06:31:40.950Z,83.50
2018-02-09T06:34:07.409Z,83.30
2018-02-09T06:36:34.245Z,83.20
2018-02-09T06:39:00.756Z,83.30
2018-02-09T06:41:27.189Z,83.30
2018-02-09T06:43:53.685Z,83.30
2018-02-09T06:46:20.849Z,83.60
2018-02-09T06:48:47.316Z,83.50
2018-02-09T06:51:21.451Z,83.80
2018-02-09T06:53:50.458Z,83.30
2018-02-09T06:56:17.774Z,82.90
2018-02-09T06:58:44.204Z,82.80
2018-02-09T07:01:10.640Z,82.60
2018-02-09T07:03:37.053Z,82.80
2018-02-09T07:06:03.643Z,82.50
2018-02-09T07:08:30.112Z,82.50
2018-02-09T07:10:56.544Z,82.40
2018-02-09T07:13:22.980Z,82.40
2018-02-09T07:15:50.161Z,82.60
2018-02-09T07:18:16.625Z,82.60
2018-02-09T07:20:43.061Z,82.80
2018-02-09T07:23:09.476Z,83.10
2018-02-09T07:25:35.932Z,83.20
2018-02-09T07:28:02.428Z,83.20
2018-02-09T07:30:28.871Z,83.30
2018-02-09T07:32:55.277Z,83.30
2018-02-09T07:35:22.501Z,83.10
2018-02-09T07:37:48.970Z,83.00
2018-02-09T07:40:15.456Z,83.20
2018-02-09T07:42:41.905Z,83.30
2018-02-09T07:45:08.328Z,83.30
2018-02-09T07:47:35.484Z,83.30
2018-02-09T07:50:01.974Z,83.30
2018-02-09T07:52:28.408Z,83.40
2018-02-09T07:54:54.848Z,83.30
2018-02-09T07:57:21.324Z,83.00
2018-02-09T07:59:47.769Z,82.80
2018-02-09T08:02:15.696Z,82.80
2018-02-09T08:04:42.146Z,82.80
2018-02-09T08:07:08.586Z,83.10
2018-02-09T08:09:37.317Z,82.50
2018-02-09T08:12:04.488Z,82.60
2018-02-09T08:14:30.901Z,82.60
2018-02-09T08:16:57.353Z,82.70
2018-02-09T08:19:23.791Z,82.40
2018-02-09T08:21:50.238Z,82.40
2018-02-09T08:24:16.680Z,82.50
2018-02-09T08:26:43.169Z,82.70
2018-02-09T08:29:10.341Z,82.90
2018-02-09T08:31:36.763Z,82.70
2018-02-09T08:34:03.219Z,82.70
2018-02-09T08:36:29.687Z,82.70
2018-02-09T08:38:56.556Z,82.80
2018-02-09T08:41:22.981Z,82.70
2018-02-09T08:43:49.398Z,82.70
2018-02-09T08:46:15.827Z,82.50
2018-02-09T08:48:42.316Z,82.20
2018-02-09T08:51:09.489Z,81.90
2018-02-09T08:53:35.949Z,81.90
2018-02-09T08:56:02.405Z,81.50
2018-02-09T08:58:29.008Z,80.90
2018-02-09T09:00:55.408Z,80.70
2018-02-09T09:03:21.894Z,80.20
2018-02-09T09:05:48.340Z,79.70
2018-02-09T09:08:14.774Z,79.20
2018-02-09T09:10:42.029Z,79.90
2018-02-09T09:13:08.449Z,79.90
2018-02-09T09:15:34.945Z,79.90
2018-02-09T09:18:05.216Z,79.70
2018-02-09T09:20:46.827Z,79.60
2018-02-09T09:23:13.331Z,79.90
2018-02-09T09:25:46.425Z,79.60
2018-02-09T09:28:19.858Z,79.60
2018-02-09T09:30:47.010Z,79.00
2018-02-09T09:33:14.208Z,78.70
2018-02-09T09:35:40.764Z,78.70
2018-02-09T09:38:07.232Z,78.40
2018-02-09T09:40:34.396Z,78.30
2018-02-09T09:43:00.833Z,78.20
2018-02-09T09:45:28.004Z,77.90
2018-02-09T09:47:55.497Z,77.90
2018-02-09T09:50:22.250Z,77.60
2018-02-09T09:52:49.447Z,78.30
2018-02-09T09:55:15.888Z,78.20
2018-02-09T09:57:43.376Z,77.80
2018-02-09T10:00:14.895Z,77.60
2018-02-09T10:02:41.317Z,76.90
2018-02-09T10:05:08.515Z,77.30
2018-02-09T10:07:34.995Z,77.20
2018-02-09T10:10:04.472Z,77.00
2018-02-09T10:12:30.922Z,76.80
2018-02-09T10:14:57.370Z,77.10
2018-02-09T10:17:24.518Z,76.80
2018-02-09T10:19:51.726Z,77.00
2018-02-09T10:22:18.122Z,77.00
2018-02-09T10:24:44.702Z,77.00
2018-02-09T10:27:11.921Z,75.90
2018-02-09T10:29:42.528Z,75.80
2018-02-09T10:32:10.715Z,75.90
2018-02-09T10:34:37.133Z,75.80
2018-02-09T10:37:04.329Z,76.10
2018-02-09T10:39:30.737Z,75.90
2018-02-09T10:41:57.195Z,76.00
2018-02-09T10:44:23.598Z,75.40
2018-02-09T10:46:50.038Z,75.30
2018-02-09T10:49:17.529Z,75.40
2018-02-09T10:51:43.982Z,75.20
2018-02-09T10:54:10.416Z,75.40
2018-02-09T10:56:43.981Z,75.10
2018-02-09T10:59:10.429Z,74.80
2018-02-09T11:01:36.918Z,74.20
2018-02-09T11:04:03.369Z,74.40
2018-02-09T11:06:30.513Z,74.80
2018-02-09T11:09:03.697Z,74.60
2018-02-09T11:11:30.849Z,74.80
2018-02-09T11:13:58.051Z,75.30
2018-02-09T11:16:24.509Z,75.30
2018-02-09T11:18:50.940Z,75.40
2018-02-09T11:21:17.364Z,74.50
2018-02-09T11:23:50.966Z,73.80
2018-02-09T11:26:23.404Z,73.60
2018-02-09T11:28:49.836Z,73.30
2018-02-09T11:31:20.241Z,72.70
2018-02-09T11:34:00.626Z,73.60
2018-02-09T11:36:27.052Z,73.50
2018-02-09T11:38:53.486Z,73.30
2018-02-09T11:41:19.952Z,73.30
2018-02-09T11:43:46.404Z,73.00
2018-02-09T11:46:12.843Z,73.20
2018-02-09T11:48:39.292Z,73.30
2018-02-09T11:51:06.522Z,73.40
2018-02-09T11:53:33.058Z,73.30
2018-02-09T11:56:03.522Z,73.90
2018-02-09T11:58:33.981Z,73.20
2018-02-09T12:01:04.233Z,72.80
2018-02-09T12:03:40.718Z,73.30
2018-02-09T12:06:07.187Z,72.80
2018-02-09T12:08:35.400Z,72.40
2018-02-09T12:11:01.872Z,72.40
2018-02-09T12:13:29.056Z,72.30
2018-02-09T12:16:07.821Z,72.30
2018-02-09T12:18:40.710Z,72.30
2018-02-09T12:21:07.196Z,72.30
2018-02-09T12:23:50.622Z,72.30
2018-02-09T12:26:20.749Z,73.10
2018-02-09T12:29:01.086Z,72.20
2018-02-09T12:31:35.437Z,71.70
2018-02-09T12:34:09.751Z,72.60
2018-02-09T12:36:36.893Z,72.80
2018-02-09T12:39:04.113Z,72.20
2018-02-09T12:41:30.641Z,72.00
2018-02-09T12:43:57.077Z,71.70
2018-02-09T12:46:23.508Z,71.50
2018-02-09T12:48:49.940Z,71.20
2018-02-09T12:51:16.380Z,71.50
2018-02-09T12:53:42.813Z,71.20
2018-02-09T12:56:09.253Z,70.80
2018-02-09T12:58:42.717Z,70.30
2018-02-09T13:01:09.132Z,71.10
2018-02-09T13:03:50.392Z,71.40
2018-02-09T13:06:21.493Z,70.60
2018-02-09T13:08:47.918Z,70.60
2018-02-09T13:11:27.624Z,71.10
2018-02-09T13:14:01.923Z,71.20
2018-02-09T13:16:33.460Z,71.20
2018-02-09T13:18:59.943Z,71.30
2018-02-09T13:21:33.521Z,70.60
2018-02-09T13:24:12.316Z,70.90
2018-02-09T13:26:38.765Z,70.30
2018-02-09T13:29:05.208Z,70.70
2018-02-09T13:31:31.648Z,70.20
2018-02-09T13:33:58.069Z,70.90
2018-02-09T13:36:37.667Z,71.10
2018-02-09T13:39:04.130Z,71.20
2018-02-09T13:41:30.669Z,70.80
2018-02-09T13:43:57.102Z,70.50
2018-02-09T13:46:23.498Z,70.50
2018-02-09T13:48:49.929Z,70.20
2018-02-09T13:51:16.445Z,70.60
2018-02-09T13:53:43.646Z,70.50
2018-02-09T13:56:10.081Z,70.40
2018-02-09T13:58:36.593Z,71.20
2018-02-09T14:01:03.036Z,70.60
2018-02-09T14:03:30.331Z,70.30
2018-02-09T14:05:56.764Z,70.50
2018-02-09T14:08:23.168Z,71.10
2018-02-09T14:10:49.633Z,71.40
2018-02-09T14:13:18.161Z,71.80
2018-02-09T14:15:44.576Z,72.40
2018-02-09T14:18:11.032Z,72.10
2018-02-09T14:20:37.483Z,72.20
2018-02-09T14:23:03.923Z,71.80
2018-02-09T14:25:30.393Z,71.20
2018-02-09T14:27:56.830Z,71.20
2018-02-09T14:30:23.263Z,71.80
2018-02-09T14:32:50.421Z,71.50
2018-02-09T14:35:16.845Z,71.60
2018-02-09T14:37:44.114Z,72.00
2018-02-09T14:40:11.313Z,72.40
2018-02-09T14:42:37.777Z,72.30
2018-02-09T14:45:04.211Z,72.20
2018-02-09T14:47:30.680Z,72.50
2018-02-09T14:49:57.176Z,72.50
2018-02-09T14:52:23.588Z,72.50
2018-02-09T14:54:50.055Z,72.60
2018-02-09T14:57:16.529Z,72.30
2018-02-09T14:59:42.982Z,72.60
2018-02-09T15:02:09.443Z,73.00
2018-02-09T15:04:35.903Z,73.30
2018-02-09T15:07:02.364Z,73.80
2018-02-09T15:09:29.540Z,73.40
2018-02-09T15:11:55.990Z,73.30
2018-02-09T15:14:22.436Z,73.60
2018-02-09T15:16:48.892Z,73.80
2018-02-09T15:19:15.404Z,74.00
2018-02-09T15:21:41.941Z,74.40
2018-02-09T15:24:08.412Z,74.50
2018-02-09T15:26:35.630Z,74.80
2018-02-09T15:29:02.057Z,74.80
2018-02-09T15:31:28.461Z,75.00
2018-02-09T15:33:54.931Z,75.10
2018-02-09T15:36:21.392Z,75.40
2018-02-09T15:38:48.817Z,75.50
2018-02-09T15:41:15.266Z,75.10
2018-02-09T15:43:41.673Z,75.10
2018-02-09T15:46:08.105Z,75.10
2018-02-09T15:48:34.573Z,75.80
2018-02-09T15:51:01.012Z,75.30
2018-02-09T15:53:27.488Z,75.40
2018-02-09T15:55:53.968Z,75.10
2018-02-09T15:58:20.428Z,74.40
2018-02-09T16:00:49.392Z,74.80
2018-02-09T16:03:20.127Z,75.10
2018-02-09T16:05:47.512Z,75.70
2018-02-09T16:08:13.940Z,75.60
2018-02-09T16:10:41.144Z,75.40
2018-02-09T16:13:07.560Z,75.30
2018-02-09T16:15:34.016Z,75.20
2018-02-09T16:18:00.518Z,75.70
2018-02-09T16:20:27.721Z,75.60
2018-02-09T16:22:54.136Z,75.50
2018-02-09T16:25:20.609Z,74.90
2018-02-09T16:27:47.024Z,75.30
2018-02-09T16:30:26.689Z,75.40
2018-02-09T16:32:53.109Z,75.60
2018-02-09T16:35:28.692Z,74.50
2018-02-09T16:37:55.122Z,74.60
2018-02-09T16:40:21.523Z,74.70
2018-02-09T16:42:48.980Z,75.60
2018-02-09T16:45:22.426Z,75.30
2018-02-09T16:48:03.195Z,76.20
2018-02-09T16:50:30.377Z,75.70
2018-02-09T16:52:56.820Z,75.60
2018-02-09T16:55:23.300Z,74.90
2018-02-09T16:57:50.479Z,75.40
2018-02-09T17:00:16.885Z,75.30
2018-02-09T17:02:44.107Z,75.10
2018-02-09T17:05:10.592Z,75.10
2018-02-09T17:07:37.778Z,75.20
2018-02-09T17:10:04.266Z,75.20
2018-02-09T17:12:30.686Z,75.50
2018-02-09T17:14:57.121Z,75.30
2018-02-09T17:17:27.461Z,75.30
2018-02-09T17:19:54.644Z,75.90
2018-02-09T17:22:21.104Z,75.70
2018-02-09T17:24:47.521Z,75.50
2018-02-09T17:27:13.928Z,76.10
2018-02-09T17:29:40.468Z,76.20
2018-02-09T17:32:06.929Z,76.70
2018-02-09T17:34:33.348Z,76.20
2018-02-09T17:36:59.766Z,75.50
2018-02-09T17:39:26.928Z,75.60
2018-02-09T17:41:53.400Z,75.50
2018-02-09T17:44:19.841Z,75.50
2018-02-09T17:46:46.344Z,75.70
2018-02-09T17:49:14.824Z,75.90
2018-02-09T17:51:41.276Z,76.10
2018-02-09T17:54:07.771Z,76.10
2018-02-09T17:56:34.958Z,76.00
2018-02-09T17:59:01.504Z,76.00
2018-02-09T18:01:28.013Z,76.40
2018-02-09T18:03:55.507Z,76.20
2018-02-09T18:06:21.973Z,76.60
2018-02-09T18:08:48.458Z,76.60
2018-02-09T18:11:14.982Z,76.90
2018-02-09T18:13:41.470Z,77.00
2018-02-09T18:16:07.966Z,76.80
2018-02-09T18:18:34.575Z,77.20
2018-02-09T18:21:01.061Z,77.20
2018-02-09T18:23:28.357Z,77.30
2018-02-09T18:25:55.536Z,77.40
2018-02-09T18:28:22.031Z,77.40
2018-02-09T18:30:49.219Z,77.80
2018-02-09T18:33:15.739Z,77.70
2018-02-09T18:35:42.207Z,78.00
2018-02-09T18:38:08.710Z,77.90
2018-02-09T18:40:35.131Z,77.60
2018-02-09T18:43:02.366Z,78.30
2018-02-09T18:45:28.787Z,78.00
2018-02-09T18:47:55.260Z,77.90
2018-02-09T18:50:21.792Z,77.80
2018-02-09T18:52:48.305Z,78.10
2018-02-09T18:55:14.875Z,78.30
2018-02-09T18:57:41.400Z,78.10
2018-02-09T19:00:08.590Z,78.40
2018-02-09T19:02:35.105Z,78.20
2018-02-09T19:05:01.637Z,78.80
2018-02-09T19:07:28.096Z,78.80
2018-02-09T19:09:54.565Z,79.60
2018-02-09T19:12:20.975Z,79.60
2018-02-09T19:14:47.430Z,79.30
2018-02-09T19:17:14.225Z,79.20
2018-02-09T19:19:40.952Z,79.10
2018-02-09T19:22:08.237Z,79.10
2018-02-09T19:24:34.804Z,79.00
2018-02-09T19:27:03.381Z,79.10
2018-02-09T19:29:29.956Z,79.00
2018-02-09T19:31:56.621Z,78.80
2018-02-09T19:34:23.502Z,79.00
2018-02-09T19:36:49.916Z,78.90
2018-02-09T19:39:16.388Z,79.00
2018-02-09T19:41:42.812Z,78.90
2018-02-09T19:44:09.235Z,79.20
2018-02-09T19:46:35.685Z,79.00
2018-02-09T19:49:02.109Z,78.90
2018-02-09T19:51:28.560Z,79.10
2018-02-09T19:53:55.725Z,79.40
2018-02-09T19:56:22.160Z,79.30
2018-02-09T19:58:49.320Z,79.60
2018-02-09T20:01:16.487Z,79.50
2018-02-09T20:03:42.917Z,79.50
2018-02-09T20:06:09.351Z,79.60
2018-02-09T20:08:35.816Z,79.20
2018-02-09T20:11:02.239Z,79.00
2018-02-09T20:13:28.673Z,78.90
2018-02-09T20:15:55.133Z,79.20
2018-02-09T20:18:21.611Z,78.90
2018-02-09T20:20:48.021Z,78.90
2018-02-09T20:23:15.223Z,79.30
2018-02-09T20:25:41.732Z,79.20
2018-02-09T20:28:08.888Z,79.50
2018-02-09T20:30:36.057Z,79.60
2018-02-09T20:33:02.513Z,79.60
2018-02-09T20:35:28.920Z,79.80
2018-02-09T20:37:55.356Z,80.00
2018-02-09T20:40:21.780Z,80.00
2018-02-09T20:42:48.226Z,80.00
2018-02-09T20:45:14.737Z,80.40
2018-02-09T20:47:44.598Z,80.70
2018-02-09T20:50:11.127Z,80.70
2018-02-09T20:52:37.893Z,80.90
2018-02-09T20:55:04.386Z,81.00
2018-02-09T20:57:30.777Z,82.00
2018-02-09T20:59:58.789Z,81.60
2018-02-09T21:02:25.220Z,82.20
2018-02-09T21:04:51.643Z,81.30
2018-02-09T21:07:18.893Z,80.20
2018-02-09T21:09:49.468Z,79.90
2018-02-09T21:12:16.429Z,79.90
2018-02-09T21:14:42.891Z,79.90
2018-02-09T21:17:10.540Z,79.70
2018-02-09T21:19:37.883Z,79.80
2018-02-09T21:22:05.834Z,79.80
2018-02-09T21:24:32.296Z,79.70
2018-02-09T21:26:58.761Z,79.60
2018-02-09T21:29:25.949Z,79.90
2018-02-09T21:31:52.365Z,79.90
2018-02-09T21:34:19.512Z,80.20
2018-02-09T21:36:45.992Z,80.20
2018-02-09T21:39:12.444Z,80.20
2018-02-09T21:41:38.858Z,80.30
2018-02-09T21:44:05.309Z,80.60
2018-02-09T21:46:31.756Z,80.60
2018-02-09T21:48:58.163Z,81.00
2018-02-09T21:51:24.605Z,82.20
2018-02-09T21:53:57.224Z,81.50
2018-02-09T21:56:24.411Z,81.60
2018-02-09T21:58:51.852Z,81.60
2018-02-09T22:01:18.347Z,81.50
2018-02-09T22:03:44.858Z,81.60
2018-02-09T22:06:11.294Z,81.60
2018-02-09T22:08:37.936Z,81.40
2018-02-09T22:11:04.347Z,81.40
2018-02-09T22:13:30.788Z,81.50
2018-02-09T22:15:57.268Z,81.40
2018-02-09T22:18:23.716Z,81.90
2018-02-09T22:20:50.168Z,82.10
2018-02-09T22:23:16.617Z,82.20
2018-02-09T22:25:43.072Z,82.40
2018-02-09T22:28:09.469Z,82.40
2018-02-09T22:30:35.939Z,81.60
2018-02-09T22:33:02.357Z,81.70
2018-02-09T22:35:28.792Z,82.10
2018-02-09T22:37:55.237Z,82.30
2018-02-09T22:40:22.760Z,82.40
2018-02-09T22:42:49.186Z,82.30
2018-02-09T22:45:16.360Z,81.70
2018-02-09T22:47:42.788Z,81.70
2018-02-09T22:50:09.193Z,81.70
2018-02-09T22:52:36.402Z,81.60
2018-02-09T22:55:02.828Z,81.60
2018-02-09T22:57:29.220Z,81.60
2018-02-09T22:59:56.398Z,81.30
2018-02-09T23:02:22.836Z,81.30
2018-02-09T23:04:53.086Z,81.30
2018-02-09T23:07:19.572Z,80.90
2018-02-09T23:09:45.977Z,80.80
2018-02-09T23:12:12.396Z,80.60
2018-02-09T23:14:39.673Z,80.50
2018-02-09T23:17:06.876Z,80.70
2018-02-09T23:19:36.887Z,80.70
2018-02-09T23:22:03.360Z,80.60
2018-02-09T23:24:29.776Z,80.40
2018-02-09T23:26:56.245Z,80.50
2018-02-09T23:29:23.408Z,80.80
2018-02-09T23:31:50.624Z,80.60
2018-02-09T23:34:17.102Z,80.60
2018-02-09T23:36:43.528Z,80.70
2018-02-09T23:39:10.004Z,80.80
2018-02-09T23:41:36.460Z,80.90
2018-02-09T23:44:02.893Z,80.90
2018-02-09T23:46:29.341Z,80.80
2018-02-09T23:48:55.732Z,80.70
2018-02-09T23:51:22.162Z,80.80
2018-02-09T23:53:48.574Z,81.10
2018-02-09T23:56:15.720Z,81.30
2018-02-09T23:58:43.035Z,81.20
